TimeMDT,TemperatureF,Dew PointF,Humidity,Sea Level PressureIn,VisibilityMPH,Wind Direction,Wind SpeedMPH,Gust SpeedMPH,PrecipitationIn,Events,Conditions,WindDirDegrees,DateUTC
12:53 AM,70.0,55.9,61,29.94,10.0,NW,21.9,31.1,N/A,,Partly Cloudy,320,2013-07-19 06:53:00
1:53 AM,69.1,55.9,63,29.92,10.0,NW,19.6,-,N/A,,Clear,310,2013-07-19 07:53:00
2:53 AM,66.9,57.0,70,29.91,10.0,NW,16.1,-,N/A,,Clear,320,2013-07-19 08:53:00
3:53 AM,68.0,55.9,65,29.90,10.0,NNW,11.5,-,N/A,,Mostly Cloudy,330,2013-07-19 09:53:00
4:53 AM,66.9,55.9,68,29.90,10.0,WNW,11.5,-,N/A,,Partly Cloudy,300,2013-07-19 10:53:00
5:53 AM,66.9,57.0,70,29.92,10.0,West,6.9,-,N/A,,Mostly Cloudy,270,2013-07-19 11:53:00
6:53 AM,69.1,55.0,61,29.95,10.0,West,9.2,-,N/A,,Overcast,270,2013-07-19 12:53:00
7:53 AM,75.0,55.9,51,29.96,10.0,North,12.7,-,N/A,,Partly Cloudy,10,2013-07-19 13:53:00
8:53 AM,73.9,57.0,55,30.00,10.0,North,9.2,-,N/A,,Partly Cloudy,360,2013-07-19 14:53:00
9:53 AM,78.1,60.1,54,30.00,10.0,Variable,6.9,-,N/A,,Partly Cloudy,0,2013-07-19 15:53:00
10:53 AM,75.9,61.0,60,30.02,10.0,North,10.4,-,N/A,,Mostly Cloudy,350,2013-07-19 16:53:00
11:53 AM,75.9,63.0,64,30.00,10.0,NW,17.3,-,N/A,,Scattered Clouds,320,2013-07-19 17:53:00
12:53 PM,70.0,60.1,71,30.02,10.0,NNW,21.9,27.6,N/A,,Scattered Clouds,330,2013-07-19 18:53:00
1:09 PM,64.4,60.8,88,30.18,10.0,North,23.0,33.4,N/A,Thunderstorm,Mostly Cloudy,350,2013-07-19 19:09:00
1:24 PM,64.4,57.2,77,30.19,10.0,North,25.3,-,N/A,Thunderstorm,Mostly Cloudy,10,2013-07-19 19:24:00
1:53 PM,66.0,59.0,78,30.05,10.0,NNE,26.5,35.7,N/A,Thunderstorm,Overcast,20,2013-07-19 19:53:00
2:00 PM,64.4,60.8,88,30.19,10.0,NNE,24.2,33.4,0.00,Rain,Light Rain,30,2013-07-19 20:00:00
2:09 PM,62.6,60.8,94,30.19,10.0,NNE,19.6,31.1,0.00,Rain-Thunderstorm,Light Rain,20,2013-07-19 20:09:00
2:24 PM,62.6,60.8,94,30.18,10.0,NNE,17.3,-,0.00,Rain,Light Rain,20,2013-07-19 20:24:00
2:53 PM,64.0,57.9,80,30.03,10.0,NNE,19.6,25.3,0.00,,Clear,30,2013-07-19 20:53:00
3:53 PM,64.0,59.0,84,30.02,10.0,NE,23.0,32.2,0.00,Rain,Light Rain,40,2013-07-19 21:53:00
4:11 PM,66.2,57.2,73,30.17,10.0,ENE,20.7,28.8,0.00,Thunderstorm,Overcast,70,2013-07-19 22:11:00
4:25 PM,66.2,60.8,83,30.18,10.0,East,15.0,21.9,0.00,Thunderstorm,Thunderstorm,100,2013-07-19 22:25:00
4:53 PM,66.0,59.0,78,30.03,10.0,ENE,15.0,19.6,0.00,Thunderstorm,Overcast,70,2013-07-19 22:53:00
5:01 PM,66.2,59.0,78,30.17,10.0,East,11.5,-,N/A,,Overcast,80,2013-07-19 23:01:00
5:53 PM,66.9,60.1,79,29.99,10.0,East,15.0,-,N/A,,Overcast,90,2013-07-19 23:53:00
6:53 PM,66.9,60.1,79,29.98,10.0,ESE,9.2,-,N/A,,Overcast,120,2013-07-20 00:53:00
7:53 PM,64.9,61.0,87,29.97,10.0,SE,9.2,-,N/A,,Clear,140,2013-07-20 01:53:00
8:53 PM,63.0,60.1,90,29.98,10.0,SSW,3.5,-,N/A,,Clear,210,2013-07-20 02:53:00
9:53 PM,60.1,59.0,96,29.99,10.0,SW,5.8,-,N/A,,Clear,220,2013-07-20 03:53:00
10:53 PM,59.0,57.0,93,30.01,10.0,WSW,3.5,-,N/A,,Clear,250,2013-07-20 04:53:00
11:53 PM,61.0,57.9,90,30.01,10.0,SSW,6.9,-,N/A,,Clear,200,2013-07-20 05:53:00